sensor_id;sensor_type;location;lat;lon;timestamp;P1;durP1;ratioP1;P2;durP2;ratioP2
2408;SDS011;8463;48.094;7.970;2022-10-17T00:01:00;3.03;;;2.30;;
2408;SDS011;8463;48.094;7.970;2022-10-17T00:03:26;7.60;;;2.50;;
2408;SDS011;8463;48.094;7.970;2022-10-17T00:05:51;5.43;;;1.87;;
2408;SDS011;8463;48.094;7.970;2022-10-17T00:08:17;9.77;;;2.23;;
2408;SDS011;8463;48.094;7.970;2022-10-17T00:10:44;2.83;;;1.80;;
2408;SDS011;8463;48.094;7.970;2022-10-17T00:13:10;5.00;;;2.70;;
2408;SDS011;8463;48.094;7.970;2022-10-17T00:15:36;5.23;;;2.90;;
2408;SDS011;8463;48.094;7.970;2022-10-17T00:18:02;2.67;;;2.10;;
2408;SDS011;8463;48.094;7.970;2022-10-17T00:20:28;3.63;;;2.47;;
2408;SDS011;8463;48.094;7.970;2022-10-17T00:22:56;12.53;;;2.73;;
2408;SDS011;8463;48.094;7.970;2022-10-17T00:25:22;6.63;;;2.40;;
2408;SDS011;8463;48.094;7.970;2022-10-17T00:27:48;2.30;;;2.10;;
2408;SDS011;8463;48.094;7.970;2022-10-17T00:30:14;2.93;;;2.33;;
2408;SDS011;8463;48.094;7.970;2022-10-17T00:32:40;5.77;;;2.20;;
2408;SDS011;8463;48.094;7.970;2022-10-17T00:35:07;4.93;;;2.00;;
2408;SDS011;8463;48.094;7.970;2022-10-17T00:37:33;7.23;;;2.80;;
2408;SDS011;8463;48.094;7.970;2022-10-17T00:39:59;7.90;;;3.00;;
2408;SDS011;8463;48.094;7.970;2022-10-17T00:42:25;3.00;;;2.40;;
2408;SDS011;8463;48.094;7.970;2022-10-17T00:44:58;3.73;;;2.83;;
2408;SDS011;8463;48.094;7.970;2022-10-17T00:47:27;2.20;;;2.00;;
2408;SDS011;8463;48.094;7.970;2022-10-17T00:49:54;5.10;;;2.53;;
2408;SDS011;8463;48.094;7.970;2022-10-17T00:52:21;3.77;;;2.10;;
2408;SDS011;8463;48.094;7.970;2022-10-17T00:54:54;3.20;;;2.70;;
2408;SDS011;8463;48.094;7.970;2022-10-17T00:57:23;3.07;;;2.47;;
2408;SDS011;8463;48.094;7.970;2022-10-17T00:59:51;3.47;;;2.90;;
2408;SDS011;8463;48.094;7.970;2022-10-17T01:02:21;3.43;;;2.30;;
2408;SDS011;8463;48.094;7.970;2022-10-17T01:04:48;2.50;;;2.27;;
2408;SDS011;8463;48.094;7.970;2022-10-17T01:07:17;4.40;;;3.63;;
2408;SDS011;8463;48.094;7.970;2022-10-17T01:09:43;3.43;;;2.07;;
2408;SDS011;8463;48.094;7.970;2022-10-17T01:12:16;4.83;;;2.60;;
2408;SDS011;8463;48.094;7.970;2022-10-17T01:26:26;2.40;;;1.93;;
2408;SDS011;8463;48.094;7.970;2022-10-17T01:31:37;4.30;;;2.57;;
2408;SDS011;8463;48.094;7.970;2022-10-17T01:34:20;5.17;;;2.83;;
2408;SDS011;8463;48.094;7.970;2022-10-17T01:45:24;2.53;;;2.20;;
2408;SDS011;8463;48.094;7.970;2022-10-17T01:47:58;3.43;;;2.40;;
2408;SDS011;8463;48.094;7.970;2022-10-17T01:50:33;3.63;;;2.50;;
2408;SDS011;8463;48.094;7.970;2022-10-17T01:53:06;6.63;;;3.77;;
2408;SDS011;8463;48.094;7.970;2022-10-17T01:55:40;4.20;;;3.30;;
2408;SDS011;8463;48.094;7.970;2022-10-17T01:58:30;9.70;;;3.47;;
2408;SDS011;8463;48.094;7.970;2022-10-17T02:00:59;3.60;;;3.10;;
2408;SDS011;8463;48.094;7.970;2022-10-17T02:03:29;3.20;;;2.90;;
2408;SDS011;8463;48.094;7.970;2022-10-17T02:05:56;2.90;;;2.60;;
2408;SDS011;8463;48.094;7.970;2022-10-17T02:08:30;3.23;;;2.90;;
2408;SDS011;8463;48.094;7.970;2022-10-17T02:11:21;3.23;;;2.93;;
2408;SDS011;8463;48.094;7.970;2022-10-17T02:30:50;3.03;;;2.50;;
2408;SDS011;8463;48.094;7.970;2022-10-17T02:33:42;2.90;;;2.63;;
2408;SDS011;8463;48.094;7.970;2022-10-17T02:36:10;3.57;;;2.30;;
2408;SDS011;8463;48.094;7.970;2022-10-17T02:38:41;3.50;;;2.97;;
2408;SDS011;8463;48.094;7.970;2022-10-17T02:41:09;3.60;;;3.10;;
2408;SDS011;8463;48.094;7.970;2022-10-17T02:43:38;3.27;;;2.70;;
2408;SDS011;8463;48.094;7.970;2022-10-17T02:46:07;4.10;;;2.77;;
2408;SDS011;8463;48.094;7.970;2022-10-17T02:48:34;4.40;;;2.80;;
2408;SDS011;8463;48.094;7.970;2022-10-17T02:56:52;4.00;;;2.77;;
2408;SDS011;8463;48.094;7.970;2022-10-17T02:59:23;3.23;;;2.67;;
2408;SDS011;8463;48.094;7.970;2022-10-17T03:01:51;3.47;;;3.10;;
2408;SDS011;8463;48.094;7.970;2022-10-17T03:04:17;2.93;;;2.67;;
2408;SDS011;8463;48.094;7.970;2022-10-17T03:06:43;4.50;;;3.47;;
2408;SDS011;8463;48.094;7.970;2022-10-17T03:09:11;2.73;;;2.53;;
2408;SDS011;8463;48.094;7.970;2022-10-17T03:11:37;3.70;;;2.53;;
2408;SDS011;8463;48.094;7.970;2022-10-17T03:14:03;2.40;;;2.20;;
2408;SDS011;8463;48.094;7.970;2022-10-17T03:16:28;7.10;;;3.27;;
2408;SDS011;8463;48.094;7.970;2022-10-17T03:18:54;3.70;;;2.20;;
2408;SDS011;8463;48.094;7.970;2022-10-17T03:21:20;3.93;;;3.07;;
2408;SDS011;8463;48.094;7.970;2022-10-17T03:23:45;3.67;;;2.60;;
2408;SDS011;8463;48.094;7.970;2022-10-17T03:26:11;5.10;;;2.93;;
2408;SDS011;8463;48.094;7.970;2022-10-17T03:28:37;2.70;;;2.03;;
2408;SDS011;8463;48.094;7.970;2022-10-17T03:31:09;3.70;;;2.60;;
2408;SDS011;8463;48.094;7.970;2022-10-17T03:33:38;2.90;;;2.40;;
2408;SDS011;8463;48.094;7.970;2022-10-17T03:36:04;9.10;;;2.80;;
2408;SDS011;8463;48.094;7.970;2022-10-17T03:38:34;2.80;;;2.60;;
2408;SDS011;8463;48.094;7.970;2022-10-17T03:40:59;3.07;;;2.23;;
2408;SDS011;8463;48.094;7.970;2022-10-17T03:43:25;4.80;;;2.77;;
2408;SDS011;8463;48.094;7.970;2022-10-17T03:45:51;10.73;;;3.13;;
2408;SDS011;8463;48.094;7.970;2022-10-17T03:48:17;3.97;;;3.20;;
2408;SDS011;8463;48.094;7.970;2022-10-17T03:50:42;2.50;;;2.30;;
2408;SDS011;8463;48.094;7.970;2022-10-17T03:53:08;4.10;;;2.87;;
2408;SDS011;8463;48.094;7.970;2022-10-17T03:55:33;3.03;;;2.70;;
2408;SDS011;8463;48.094;7.970;2022-10-17T03:57:59;3.00;;;2.80;;
2408;SDS011;8463;48.094;7.970;2022-10-17T04:00:25;2.50;;;2.30;;
2408;SDS011;8463;48.094;7.970;2022-10-17T04:02:50;3.37;;;2.37;;
2408;SDS011;8463;48.094;7.970;2022-10-17T04:05:16;4.93;;;2.70;;
2408;SDS011;8463;48.094;7.970;2022-10-17T04:07:41;2.67;;;2.40;;
2408;SDS011;8463;48.094;7.970;2022-10-17T04:10:07;4.23;;;2.50;;
2408;SDS011;8463;48.094;7.970;2022-10-17T04:12:33;2.43;;;2.23;;
2408;SDS011;8463;48.094;7.970;2022-10-17T04:14:59;3.93;;;2.87;;
2408;SDS011;8463;48.094;7.970;2022-10-17T04:17:25;5.33;;;2.87;;
2408;SDS011;8463;48.094;7.970;2022-10-17T04:19:50;3.97;;;2.30;;
2408;SDS011;8463;48.094;7.970;2022-10-17T04:22:16;3.73;;;2.67;;
2408;SDS011;8463;48.094;7.970;2022-10-17T04:24:41;3.90;;;2.50;;
2408;SDS011;8463;48.094;7.970;2022-10-17T04:27:07;6.27;;;2.63;;
2408;SDS011;8463;48.094;7.970;2022-10-17T04:29:33;2.80;;;2.43;;
2408;SDS011;8463;48.094;7.970;2022-10-17T04:31:58;2.77;;;2.57;;
2408;SDS011;8463;48.094;7.970;2022-10-17T04:34:27;4.37;;;2.43;;
2408;SDS011;8463;48.094;7.970;2022-10-17T04:36:52;2.57;;;2.37;;
2408;SDS011;8463;48.094;7.970;2022-10-17T04:39:18;3.20;;;2.90;;
2408;SDS011;8463;48.094;7.970;2022-10-17T04:41:43;7.23;;;2.90;;
2408;SDS011;8463;48.094;7.970;2022-10-17T04:44:09;5.13;;;2.50;;
2408;SDS011;8463;48.094;7.970;2022-10-17T04:46:35;7.50;;;2.97;;
2408;SDS011;8463;48.094;7.970;2022-10-17T04:49:00;2.50;;;2.10;;
2408;SDS011;8463;48.094;7.970;2022-10-17T04:51:26;3.27;;;2.50;;
2408;SDS011;8463;48.094;7.970;2022-10-17T04:53:52;3.37;;;2.47;;
2408;SDS011;8463;48.094;7.970;2022-10-17T04:56:18;3.07;;;2.77;;
2408;SDS011;8463;48.094;7.970;2022-10-17T04:58:46;4.10;;;2.93;;
2408;SDS011;8463;48.094;7.970;2022-10-17T05:01:16;4.50;;;3.10;;
2408;SDS011;8463;48.094;7.970;2022-10-17T05:03:43;8.03;;;3.37;;
2408;SDS011;8463;48.094;7.970;2022-10-17T05:06:13;3.67;;;3.37;;
2408;SDS011;8463;48.094;7.970;2022-10-17T05:08:40;4.60;;;3.33;;
2408;SDS011;8463;48.094;7.970;2022-10-17T05:11:14;3.53;;;2.67;;
2408;SDS011;8463;48.094;7.970;2022-10-17T05:13:39;3.03;;;2.60;;
2408;SDS011;8463;48.094;7.970;2022-10-17T05:16:05;4.10;;;2.80;;
2408;SDS011;8463;48.094;7.970;2022-10-17T05:18:31;3.57;;;2.90;;
2408;SDS011;8463;48.094;7.970;2022-10-17T05:20:56;14.63;;;8.97;;
2408;SDS011;8463;48.094;7.970;2022-10-17T05:23:25;11.47;;;10.37;;
2408;SDS011;8463;48.094;7.970;2022-10-17T05:25:53;4.10;;;3.80;;
2408;SDS011;8463;48.094;7.970;2022-10-17T05:28:20;8.67;;;4.43;;
2408;SDS011;8463;48.094;7.970;2022-10-17T05:30:48;6.70;;;4.30;;
2408;SDS011;8463;48.094;7.970;2022-10-17T05:33:14;6.37;;;4.90;;
2408;SDS011;8463;48.094;7.970;2022-10-17T05:35:40;3.90;;;3.50;;
2408;SDS011;8463;48.094;7.970;2022-10-17T05:38:05;4.50;;;3.50;;
2408;SDS011;8463;48.094;7.970;2022-10-17T05:40:34;3.30;;;3.00;;
2408;SDS011;8463;48.094;7.970;2022-10-17T05:43:00;3.20;;;2.90;;
2408;SDS011;8463;48.094;7.970;2022-10-17T05:45:25;8.40;;;4.00;;
2408;SDS011;8463;48.094;7.970;2022-10-17T05:47:56;10.97;;;6.97;;
2408;SDS011;8463;48.094;7.970;2022-10-17T05:50:21;9.77;;;8.77;;
2408;SDS011;8463;48.094;7.970;2022-10-17T05:52:53;6.10;;;3.73;;
2408;SDS011;8463;48.094;7.970;2022-10-17T05:55:19;3.87;;;3.57;;
2408;SDS011;8463;48.094;7.970;2022-10-17T05:57:50;6.63;;;6.00;;
2408;SDS011;8463;48.094;7.970;2022-10-17T06:00:20;6.00;;;5.20;;
2408;SDS011;8463;48.094;7.970;2022-10-17T06:02:52;4.43;;;4.03;;
2408;SDS011;8463;48.094;7.970;2022-10-17T06:05:20;4.33;;;3.93;;
2408;SDS011;8463;48.094;7.970;2022-10-17T06:07:49;3.47;;;3.27;;
2408;SDS011;8463;48.094;7.970;2022-10-17T06:10:16;5.80;;;5.03;;
2408;SDS011;8463;48.094;7.970;2022-10-17T06:12:50;7.97;;;4.53;;
2408;SDS011;8463;48.094;7.970;2022-10-17T06:15:16;7.67;;;4.00;;
2408;SDS011;8463;48.094;7.970;2022-10-17T06:17:42;3.13;;;2.83;;
2408;SDS011;8463;48.094;7.970;2022-10-17T06:20:08;4.53;;;3.17;;
2408;SDS011;8463;48.094;7.970;2022-10-17T06:22:33;4.80;;;2.83;;
2408;SDS011;8463;48.094;7.970;2022-10-17T06:24:59;4.60;;;2.60;;
2408;SDS011;8463;48.094;7.970;2022-10-17T06:27:24;3.50;;;3.07;;
2408;SDS011;8463;48.094;7.970;2022-10-17T06:29:50;5.53;;;3.60;;
2408;SDS011;8463;48.094;7.970;2022-10-17T06:32:16;3.47;;;3.17;;
2408;SDS011;8463;48.094;7.970;2022-10-17T06:34:44;7.80;;;3.90;;
2408;SDS011;8463;48.094;7.970;2022-10-17T06:37:10;3.90;;;3.50;;
2408;SDS011;8463;48.094;7.970;2022-10-17T06:39:36;3.67;;;2.87;;
2408;SDS011;8463;48.094;7.970;2022-10-17T06:42:04;3.50;;;3.00;;
2408;SDS011;8463;48.094;7.970;2022-10-17T06:44:30;4.13;;;3.10;;
2408;SDS011;8463;48.094;7.970;2022-10-17T06:47:03;3.73;;;3.20;;
2408;SDS011;8463;48.094;7.970;2022-10-17T06:49:29;3.63;;;2.77;;
2408;SDS011;8463;48.094;7.970;2022-10-17T06:52:07;5.13;;;3.30;;
2408;SDS011;8463;48.094;7.970;2022-10-17T06:54:36;6.83;;;3.37;;
2408;SDS011;8463;48.094;7.970;2022-10-17T06:57:02;2.97;;;2.77;;
2408;SDS011;8463;48.094;7.970;2022-10-17T06:59:28;3.50;;;2.90;;
2408;SDS011;8463;48.094;7.970;2022-10-17T07:01:58;3.23;;;2.93;;
2408;SDS011;8463;48.094;7.970;2022-10-17T07:04:25;3.67;;;3.10;;
2408;SDS011;8463;48.094;7.970;2022-10-17T07:06:53;3.60;;;3.10;;
2408;SDS011;8463;48.094;7.970;2022-10-17T07:09:22;7.57;;;3.27;;
2408;SDS011;8463;48.094;7.970;2022-10-17T07:11:48;2.63;;;2.43;;
2408;SDS011;8463;48.094;7.970;2022-10-17T07:14:14;3.97;;;3.10;;
2408;SDS011;8463;48.094;7.970;2022-10-17T07:16:39;3.87;;;3.10;;
2408;SDS011;8463;48.094;7.970;2022-10-17T07:19:05;3.50;;;2.73;;
2408;SDS011;8463;48.094;7.970;2022-10-17T07:21:31;3.43;;;2.50;;
2408;SDS011;8463;48.094;7.970;2022-10-17T07:23:59;3.27;;;2.97;;
2408;SDS011;8463;48.094;7.970;2022-10-17T07:26:24;8.30;;;3.33;;
2408;SDS011;8463;48.094;7.970;2022-10-17T07:28:53;3.47;;;2.63;;
2408;SDS011;8463;48.094;7.970;2022-10-17T07:33:47;3.63;;;2.60;;
2408;SDS011;8463;48.094;7.970;2022-10-17T07:36:13;5.37;;;2.03;;
2408;SDS011;8463;48.094;7.970;2022-10-17T07:38:39;6.50;;;3.07;;
2408;SDS011;8463;48.094;7.970;2022-10-17T07:41:07;3.37;;;2.80;;
2408;SDS011;8463;48.094;7.970;2022-10-17T07:43:34;2.60;;;2.30;;
2408;SDS011;8463;48.094;7.970;2022-10-17T07:46:01;4.50;;;3.20;;
2408;SDS011;8463;48.094;7.970;2022-10-17T07:48:47;2.67;;;2.43;;
2408;SDS011;8463;48.094;7.970;2022-10-17T07:51:13;7.57;;;3.00;;
2408;SDS011;8463;48.094;7.970;2022-10-17T07:53:42;3.63;;;2.80;;
2408;SDS011;8463;48.094;7.970;2022-10-17T07:56:08;4.80;;;3.10;;
2408;SDS011;8463;48.094;7.970;2022-10-17T07:58:35;6.40;;;2.77;;
2408;SDS011;8463;48.094;7.970;2022-10-17T08:01:02;4.33;;;2.67;;
2408;SDS011;8463;48.094;7.970;2022-10-17T08:03:28;3.63;;;2.07;;
2408;SDS011;8463;48.094;7.970;2022-10-17T08:06:12;2.23;;;2.03;;
2408;SDS011;8463;48.094;7.970;2022-10-17T08:08:41;4.10;;;2.77;;
2408;SDS011;8463;48.094;7.970;2022-10-17T08:11:16;4.73;;;2.80;;
2408;SDS011;8463;48.094;7.970;2022-10-17T08:13:42;3.83;;;2.80;;
2408;SDS011;8463;48.094;7.970;2022-10-17T08:16:09;2.43;;;2.10;;
2408;SDS011;8463;48.094;7.970;2022-10-17T08:18:40;5.67;;;2.30;;
2408;SDS011;8463;48.094;7.970;2022-10-17T08:21:06;5.40;;;2.33;;
2408;SDS011;8463;48.094;7.970;2022-10-17T08:23:42;4.67;;;2.33;;
2408;SDS011;8463;48.094;7.970;2022-10-17T08:26:17;2.00;;;1.83;;
2408;SDS011;8463;48.094;7.970;2022-10-17T08:28:45;1.80;;;1.70;;
2408;SDS011;8463;48.094;7.970;2022-10-17T08:31:23;3.20;;;2.20;;
2408;SDS011;8463;48.094;7.970;2022-10-17T08:33:54;3.57;;;2.20;;
2408;SDS011;8463;48.094;7.970;2022-10-17T08:36:23;4.60;;;1.90;;
2408;SDS011;8463;48.094;7.970;2022-10-17T08:38:49;2.70;;;1.80;;
2408;SDS011;8463;48.094;7.970;2022-10-17T08:46:51;2.17;;;1.87;;
2408;SDS011;8463;48.094;7.970;2022-10-17T08:49:24;4.13;;;1.90;;
2408;SDS011;8463;48.094;7.970;2022-10-17T08:52:14;2.53;;;1.90;;
2408;SDS011;8463;48.094;7.970;2022-10-17T08:54:46;4.97;;;2.73;;
2408;SDS011;8463;48.094;7.970;2022-10-17T08:57:16;4.70;;;3.17;;
2408;SDS011;8463;48.094;7.970;2022-10-17T08:59:42;5.57;;;3.43;;
2408;SDS011;8463;48.094;7.970;2022-10-17T09:05:13;4.63;;;2.90;;
2408;SDS011;8463;48.094;7.970;2022-10-17T09:08:01;2.90;;;2.30;;
2408;SDS011;8463;48.094;7.970;2022-10-17T09:10:45;3.63;;;3.00;;
2408;SDS011;8463;48.094;7.970;2022-10-17T09:19:30;2.90;;;2.20;;
2408;SDS011;8463;48.094;7.970;2022-10-17T09:22:05;5.20;;;2.50;;
2408;SDS011;8463;48.094;7.970;2022-10-17T09:27:14;2.60;;;2.40;;
2408;SDS011;8463;48.094;7.970;2022-10-17T09:33:19;3.40;;;1.80;;
2408;SDS011;8463;48.094;7.970;2022-10-17T09:35:54;2.40;;;2.00;;
2408;SDS011;8463;48.094;7.970;2022-10-17T09:38:37;3.73;;;2.13;;
2408;SDS011;8463;48.094;7.970;2022-10-17T09:41:05;2.40;;;1.90;;
2408;SDS011;8463;48.094;7.970;2022-10-17T09:43:40;2.60;;;1.60;;
2408;SDS011;8463;48.094;7.970;2022-10-17T09:46:29;3.20;;;2.33;;
2408;SDS011;8463;48.094;7.970;2022-10-17T09:49:17;3.53;;;2.57;;
2408;SDS011;8463;48.094;7.970;2022-10-17T09:51:56;2.87;;;2.57;;
2408;SDS011;8463;48.094;7.970;2022-10-17T10:00:32;2.33;;;2.00;;
2408;SDS011;8463;48.094;7.970;2022-10-17T10:03:07;2.53;;;2.20;;
2408;SDS011;8463;48.094;7.970;2022-10-17T10:06:11;3.90;;;3.10;;
2408;SDS011;8463;48.094;7.970;2022-10-17T10:08:50;2.87;;;2.23;;
2408;SDS011;8463;48.094;7.970;2022-10-17T10:11:42;4.60;;;2.33;;
2408;SDS011;8463;48.094;7.970;2022-10-17T10:20:27;5.40;;;2.23;;
2408;SDS011;8463;48.094;7.970;2022-10-17T10:23:05;6.13;;;3.43;;
2408;SDS011;8463;48.094;7.970;2022-10-17T10:25:40;3.47;;;2.57;;
2408;SDS011;8463;48.094;7.970;2022-10-17T10:28:15;4.97;;;2.10;;
2408;SDS011;8463;48.094;7.970;2022-10-17T10:30:46;2.20;;;2.00;;
2408;SDS011;8463;48.094;7.970;2022-10-17T10:33:26;4.93;;;2.90;;
2408;SDS011;8463;48.094;7.970;2022-10-17T10:35:58;4.33;;;2.20;;
2408;SDS011;8463;48.094;7.970;2022-10-17T10:38:33;2.97;;;2.70;;
2408;SDS011;8463;48.094;7.970;2022-10-17T10:41:21;4.53;;;2.90;;
2408;SDS011;8463;48.094;7.970;2022-10-17T10:43:54;7.70;;;2.43;;
2408;SDS011;8463;48.094;7.970;2022-10-17T10:46:31;2.80;;;2.03;;
2408;SDS011;8463;48.094;7.970;2022-10-17T10:49:33;4.63;;;2.77;;
2408;SDS011;8463;48.094;7.970;2022-10-17T10:52:28;4.80;;;2.53;;
2408;SDS011;8463;48.094;7.970;2022-10-17T10:55:02;3.00;;;2.37;;
2408;SDS011;8463;48.094;7.970;2022-10-17T10:58:02;7.63;;;3.10;;
2408;SDS011;8463;48.094;7.970;2022-10-17T11:00:45;3.00;;;2.27;;
2408;SDS011;8463;48.094;7.970;2022-10-17T11:03:20;2.60;;;2.27;;
2408;SDS011;8463;48.094;7.970;2022-10-17T11:06:21;2.07;;;1.87;;
2408;SDS011;8463;48.094;7.970;2022-10-17T11:11:55;3.03;;;1.90;;
2408;SDS011;8463;48.094;7.970;2022-10-17T11:14:32;3.13;;;1.70;;
2408;SDS011;8463;48.094;7.970;2022-10-17T11:20:11;1.93;;;1.73;;
2408;SDS011;8463;48.094;7.970;2022-10-17T11:23:19;8.13;;;2.03;;
2408;SDS011;8463;48.094;7.970;2022-10-17T11:26:25;4.90;;;1.50;;
2408;SDS011;8463;48.094;7.970;2022-10-17T11:29:08;1.83;;;1.63;;
2408;SDS011;8463;48.094;7.970;2022-10-17T11:31:40;4.00;;;1.87;;
2408;SDS011;8463;48.094;7.970;2022-10-17T11:34:10;3.93;;;2.03;;
2408;SDS011;8463;48.094;7.970;2022-10-17T11:36:43;2.90;;;1.83;;
2408;SDS011;8463;48.094;7.970;2022-10-17T11:44:34;2.67;;;1.70;;
2408;SDS011;8463;48.094;7.970;2022-10-17T11:49:34;2.10;;;1.20;;
2408;SDS011;8463;48.094;7.970;2022-10-17T11:52:14;4.13;;;2.00;;
2408;SDS011;8463;48.094;7.970;2022-10-17T11:54:49;1.80;;;1.43;;
2408;SDS011;8463;48.094;7.970;2022-10-17T11:57:36;3.43;;;1.70;;
2408;SDS011;8463;48.094;7.970;2022-10-17T12:11:00;5.37;;;2.30;;
2408;SDS011;8463;48.094;7.970;2022-10-17T12:15:56;1.90;;;1.20;;
2408;SDS011;8463;48.094;7.970;2022-10-17T12:18:45;3.67;;;1.70;;
2408;SDS011;8463;48.094;7.970;2022-10-17T12:30:48;2.33;;;1.63;;
2408;SDS011;8463;48.094;7.970;2022-10-17T12:32:57;4.07;;;1.30;;
2408;SDS011;8463;48.094;7.970;2022-10-17T12:35:48;3.40;;;1.10;;
2408;SDS011;8463;48.094;7.970;2022-10-17T12:38:42;1.10;;;1.00;;
2408;SDS011;8463;48.094;7.970;2022-10-17T12:41:14;1.73;;;1.20;;
2408;SDS011;8463;48.094;7.970;2022-10-17T12:43:50;1.33;;;1.23;;
2408;SDS011;8463;48.094;7.970;2022-10-17T12:46:40;1.70;;;1.40;;
2408;SDS011;8463;48.094;7.970;2022-10-17T12:57:32;2.40;;;1.63;;
2408;SDS011;8463;48.094;7.970;2022-10-17T13:03:09;3.47;;;1.87;;
2408;SDS011;8463;48.094;7.970;2022-10-17T13:05:39;4.00;;;1.60;;
2408;SDS011;8463;48.094;7.970;2022-10-17T13:08:13;1.93;;;1.60;;
2408;SDS011;8463;48.094;7.970;2022-10-17T13:10:52;1.63;;;1.53;;
2408;SDS011;8463;48.094;7.970;2022-10-17T13:16:26;2.30;;;1.37;;
2408;SDS011;8463;48.094;7.970;2022-10-17T13:19:46;1.30;;;1.20;;
2408;SDS011;8463;48.094;7.970;2022-10-17T13:25:04;3.60;;;1.10;;
2408;SDS011;8463;48.094;7.970;2022-10-17T13:27:40;2.80;;;1.20;;
2408;SDS011;8463;48.094;7.970;2022-10-17T13:33:02;1.20;;;1.10;;
2408;SDS011;8463;48.094;7.970;2022-10-17T13:35:40;1.40;;;1.20;;
2408;SDS011;8463;48.094;7.970;2022-10-17T13:38:05;2.53;;;1.47;;
2408;SDS011;8463;48.094;7.970;2022-10-17T13:40:39;2.00;;;1.43;;
2408;SDS011;8463;48.094;7.970;2022-10-17T13:43:10;8.03;;;1.90;;
2408;SDS011;8463;48.094;7.970;2022-10-17T13:46:02;2.37;;;1.73;;
2408;SDS011;8463;48.094;7.970;2022-10-17T13:48:30;2.83;;;1.40;;
2408;SDS011;8463;48.094;7.970;2022-10-17T13:50:59;1.37;;;1.20;;
2408;SDS011;8463;48.094;7.970;2022-10-17T13:53:36;1.90;;;1.50;;
2408;SDS011;8463;48.094;7.970;2022-10-17T13:58:41;1.60;;;1.20;;
2408;SDS011;8463;48.094;7.970;2022-10-17T14:01:11;1.87;;;1.20;;
2408;SDS011;8463;48.094;7.970;2022-10-17T14:03:41;1.60;;;1.40;;
2408;SDS011;8463;48.094;7.970;2022-10-17T14:11:26;2.20;;;1.33;;
2408;SDS011;8463;48.094;7.970;2022-10-17T14:14:02;2.33;;;1.30;;
2408;SDS011;8463;48.094;7.970;2022-10-17T14:16:40;1.40;;;1.20;;
2408;SDS011;8463;48.094;7.970;2022-10-17T14:19:32;1.20;;;1.10;;
2408;SDS011;8463;48.094;7.970;2022-10-17T14:22:17;1.40;;;1.30;;
2408;SDS011;8463;48.094;7.970;2022-10-17T14:24:52;3.50;;;1.40;;
2408;SDS011;8463;48.094;7.970;2022-10-17T14:27:26;2.73;;;1.40;;
2408;SDS011;8463;48.094;7.970;2022-10-17T14:29:55;2.30;;;1.40;;
2408;SDS011;8463;48.094;7.970;2022-10-17T14:32:44;2.63;;;1.60;;
2408;SDS011;8463;48.094;7.970;2022-10-17T14:35:15;6.80;;;1.50;;
2408;SDS011;8463;48.094;7.970;2022-10-17T14:37:47;1.10;;;1.00;;
2408;SDS011;8463;48.094;7.970;2022-10-17T14:40:33;1.40;;;1.30;;
2408;SDS011;8463;48.094;7.970;2022-10-17T14:43:18;1.63;;;1.50;;
2408;SDS011;8463;48.094;7.970;2022-10-17T14:46:18;4.73;;;1.60;;
2408;SDS011;8463;48.094;7.970;2022-10-17T14:48:50;1.93;;;1.47;;
2408;SDS011;8463;48.094;7.970;2022-10-17T14:52:08;1.77;;;1.53;;
2408;SDS011;8463;48.094;7.970;2022-10-17T14:54:53;3.13;;;1.77;;
2408;SDS011;8463;48.094;7.970;2022-10-17T15:00:12;3.37;;;1.67;;
2408;SDS011;8463;48.094;7.970;2022-10-17T15:02:48;2.00;;;1.67;;
2408;SDS011;8463;48.094;7.970;2022-10-17T15:05:24;3.23;;;1.67;;
2408;SDS011;8463;48.094;7.970;2022-10-17T15:07:50;3.00;;;1.50;;
2408;SDS011;8463;48.094;7.970;2022-10-17T15:13:19;3.20;;;1.57;;
2408;SDS011;8463;48.094;7.970;2022-10-17T15:15:50;3.07;;;1.37;;
2408;SDS011;8463;48.094;7.970;2022-10-17T15:18:16;5.10;;;2.43;;
2408;SDS011;8463;48.094;7.970;2022-10-17T15:20:45;3.37;;;1.60;;
2408;SDS011;8463;48.094;7.970;2022-10-17T15:23:24;4.23;;;2.00;;
2408;SDS011;8463;48.094;7.970;2022-10-17T15:29:06;2.83;;;1.33;;
2408;SDS011;8463;48.094;7.970;2022-10-17T15:31:34;3.53;;;1.80;;
2408;SDS011;8463;48.094;7.970;2022-10-17T15:34:12;4.20;;;1.57;;
2408;SDS011;8463;48.094;7.970;2022-10-17T15:36:55;2.80;;;1.57;;
2408;SDS011;8463;48.094;7.970;2022-10-17T15:39:39;1.87;;;1.43;;
2408;SDS011;8463;48.094;7.970;2022-10-17T15:42:19;1.80;;;1.30;;
2408;SDS011;8463;48.094;7.970;2022-10-17T15:44:55;4.10;;;1.37;;
2408;SDS011;8463;48.094;7.970;2022-10-17T15:47:23;4.50;;;1.80;;
2408;SDS011;8463;48.094;7.970;2022-10-17T15:49:57;3.67;;;1.83;;
2408;SDS011;8463;48.094;7.970;2022-10-17T15:52:23;4.70;;;2.13;;
2408;SDS011;8463;48.094;7.970;2022-10-17T15:54:55;2.70;;;1.40;;
2408;SDS011;8463;48.094;7.970;2022-10-17T15:57:33;4.67;;;2.10;;
2408;SDS011;8463;48.094;7.970;2022-10-17T16:00:20;2.63;;;1.50;;
2408;SDS011;8463;48.094;7.970;2022-10-17T16:02:48;4.10;;;1.60;;
2408;SDS011;8463;48.094;7.970;2022-10-17T16:05:24;2.57;;;1.47;;
2408;SDS011;8463;48.094;7.970;2022-10-17T16:07:56;2.20;;;1.47;;
2408;SDS011;8463;48.094;7.970;2022-10-17T16:10:39;2.33;;;1.80;;
2408;SDS011;8463;48.094;7.970;2022-10-17T16:13:33;4.17;;;1.80;;
2408;SDS011;8463;48.094;7.970;2022-10-17T16:16:07;1.83;;;1.43;;
2408;SDS011;8463;48.094;7.970;2022-10-17T16:18:45;2.13;;;1.63;;
2408;SDS011;8463;48.094;7.970;2022-10-17T16:21:21;3.10;;;2.20;;
2408;SDS011;8463;48.094;7.970;2022-10-17T16:23:59;3.30;;;1.53;;
2408;SDS011;8463;48.094;7.970;2022-10-17T16:26:48;3.50;;;2.03;;
2408;SDS011;8463;48.094;7.970;2022-10-17T16:29:17;3.00;;;1.70;;
2408;SDS011;8463;48.094;7.970;2022-10-17T16:31:43;5.83;;;3.07;;
2408;SDS011;8463;48.094;7.970;2022-10-17T16:34:15;3.73;;;2.33;;
2408;SDS011;8463;48.094;7.970;2022-10-17T16:36:54;6.43;;;1.90;;
2408;SDS011;8463;48.094;7.970;2022-10-17T16:39:20;5.40;;;2.23;;
2408;SDS011;8463;48.094;7.970;2022-10-17T16:41:45;2.10;;;1.90;;
2408;SDS011;8463;48.094;7.970;2022-10-17T16:44:11;5.33;;;3.07;;
2408;SDS011;8463;48.094;7.970;2022-10-17T16:46:38;2.73;;;2.53;;
2408;SDS011;8463;48.094;7.970;2022-10-17T16:49:06;3.00;;;2.13;;
2408;SDS011;8463;48.094;7.970;2022-10-17T16:51:40;4.03;;;3.63;;
2408;SDS011;8463;48.094;7.970;2022-10-17T16:54:14;3.27;;;2.30;;
2408;SDS011;8463;48.094;7.970;2022-10-17T16:57:10;2.40;;;2.20;;
2408;SDS011;8463;48.094;7.970;2022-10-17T16:59:44;4.00;;;3.10;;
2408;SDS011;8463;48.094;7.970;2022-10-17T17:02:16;1.80;;;1.70;;
2408;SDS011;8463;48.094;7.970;2022-10-17T17:04:53;5.33;;;2.00;;
2408;SDS011;8463;48.094;7.970;2022-10-17T17:07:24;2.27;;;1.97;;
2408;SDS011;8463;48.094;7.970;2022-10-17T17:09:55;4.73;;;2.60;;
2408;SDS011;8463;48.094;7.970;2022-10-17T17:12:54;4.40;;;1.73;;
2408;SDS011;8463;48.094;7.970;2022-10-17T17:15:22;2.60;;;1.87;;
2408;SDS011;8463;48.094;7.970;2022-10-17T17:17:50;3.60;;;2.03;;
2408;SDS011;8463;48.094;7.970;2022-10-17T17:20:28;3.97;;;1.80;;
2408;SDS011;8463;48.094;7.970;2022-10-17T17:23:18;4.77;;;2.30;;
2408;SDS011;8463;48.094;7.970;2022-10-17T17:25:46;6.30;;;2.17;;
2408;SDS011;8463;48.094;7.970;2022-10-17T17:28:18;4.43;;;2.13;;
2408;SDS011;8463;48.094;7.970;2022-10-17T17:30:46;1.90;;;1.70;;
2408;SDS011;8463;48.094;7.970;2022-10-17T17:33:14;7.03;;;2.67;;
2408;SDS011;8463;48.094;7.970;2022-10-17T17:35:40;5.20;;;2.83;;
2408;SDS011;8463;48.094;7.970;2022-10-17T17:38:08;5.23;;;2.70;;
2408;SDS011;8463;48.094;7.970;2022-10-17T17:40:33;2.13;;;1.97;;
2408;SDS011;8463;48.094;7.970;2022-10-17T17:43:13;3.67;;;2.57;;
2408;SDS011;8463;48.094;7.970;2022-10-17T17:45:42;5.03;;;1.97;;
2408;SDS011;8463;48.094;7.970;2022-10-17T17:48:10;2.00;;;1.80;;
2408;SDS011;8463;48.094;7.970;2022-10-17T17:50:36;3.20;;;2.03;;
2408;SDS011;8463;48.094;7.970;2022-10-17T17:53:09;4.43;;;2.07;;
2408;SDS011;8463;48.094;7.970;2022-10-17T17:55:59;2.73;;;1.60;;
2408;SDS011;8463;48.094;7.970;2022-10-17T17:58:54;3.17;;;2.00;;
2408;SDS011;8463;48.094;7.970;2022-10-17T18:01:24;2.10;;;1.90;;
2408;SDS011;8463;48.094;7.970;2022-10-17T18:03:53;4.83;;;2.57;;
2408;SDS011;8463;48.094;7.970;2022-10-17T18:06:24;2.67;;;2.10;;
2408;SDS011;8463;48.094;7.970;2022-10-17T18:08:52;5.83;;;2.83;;
2408;SDS011;8463;48.094;7.970;2022-10-17T18:11:20;2.93;;;2.37;;
2408;SDS011;8463;48.094;7.970;2022-10-17T18:14:05;2.83;;;2.53;;
2408;SDS011;8463;48.094;7.970;2022-10-17T18:16:38;3.90;;;3.60;;
2408;SDS011;8463;48.094;7.970;2022-10-17T18:19:09;2.30;;;2.00;;
2408;SDS011;8463;48.094;7.970;2022-10-17T18:21:56;6.70;;;2.43;;